KAST/AST METAR and TAF weather

Enter ICAO airport designator
Station Type Date Time Source
KAST METAR 2018/12/12 04:55 UTC NOAA

KAST 120455Z AUTO 25007KT 10SM FEW060 SCT080 BKN100 07/06 A2990 RMK AO2 RAB0357E19 SLP126 P0002 T00720061


Station Type Date Time Source
KAST Decoded METAR 2018/12/12 04:55 UTC NOAA

PORT OF ASTORIA AIRPORT, OR, United States (KAST) 46-09N 123-53W 3M
Dec 11, 2018 - 11:55 PM EST / 2018.12.12 0455 UTC
Wind: from the WSW (250 degrees) at 8 MPH (7 KT):0
Visibility: 10 mile(s):0
Sky conditions: mostly cloudy
Precipitation last hour: 0.02 inches
Temperature: 45.0 F (7.2 C)
Dew Point: 43.0 F (6.1 C)
Relative Humidity: 92%
Pressure (altimeter): 29.9 in. Hg (1012 hPa)
ob: KAST 120455Z AUTO 25007KT 10SM FEW060 SCT080 BKN100 07/06 A2990 RMK AO2 RAB0357E19 SLP126 P0002 T00720061
cycle: 5

Station Type Date Time Source
KAST TAF 2018/12/12 06:42 UTC NOAA

TAF KAST 120540Z 1206/1306 26007KT P6SM -SHRA SCT025 BKN045 BKN070
TEMPO 1206/1210 28015G30KT 5SM SHRA BKN020 OVC040
FM121500 23006KT P6SM -SHRA SCT035 BKN050
FM122000 19010KT P6SM VCSH SCT030 BKN050 OVC100
FM130000 19012G23KT P6SM -RA BKN035 OVC060


Example: see airport list